createdAt,value
2023-05-11T00:02:20.707Z,27.90
2023-05-11T00:04:49.824Z,23.90
2023-05-11T00:07:17.600Z,24.20
2023-05-11T00:09:45.381Z,29.50
2023-05-11T00:12:14.201Z,25.83
2023-05-11T00:14:41.954Z,21.65
2023-05-11T00:17:10.840Z,22.88
2023-05-11T00:19:38.800Z,25.63
2023-05-11T00:22:07.953Z,26.15
2023-05-11T00:24:36.177Z,19.65
2023-05-11T00:27:04.141Z,22.40
2023-05-11T00:29:31.942Z,26.20
2023-05-11T00:31:59.782Z,26.50
2023-05-11T00:34:27.978Z,27.52
2023-05-11T00:36:56.151Z,24.10
2023-05-11T00:39:25.228Z,25.10
2023-05-11T00:41:52.999Z,26.15
2023-05-11T00:44:20.738Z,24.13
2023-05-11T00:46:48.578Z,25.08
2023-05-11T00:49:17.394Z,22.92
2023-05-11T00:51:45.322Z,29.02
2023-05-11T00:54:15.520Z,24.92
2023-05-11T00:56:44.893Z,25.40
2023-05-11T00:59:13.680Z,27.88
2023-05-11T01:01:41.861Z,29.73
2023-05-11T01:04:10.253Z,29.98
2023-05-11T01:06:46.714Z,22.25
2023-05-11T01:09:25.537Z,21.02
2023-05-11T01:12:01.720Z,25.13
2023-05-11T01:14:36.153Z,26.73
2023-05-11T01:17:11.633Z,27.75
2023-05-11T01:19:44.456Z,28.67
2023-05-11T01:22:32.214Z,26.33
2023-05-11T01:25:14.106Z,26.67
2023-05-11T01:28:17.626Z,24.83
2023-05-11T01:30:49.746Z,24.48
2023-05-11T01:33:22.628Z,29.70
2023-05-11T01:35:54.971Z,27.37
2023-05-11T01:38:25.553Z,28.35
2023-05-11T01:40:56.491Z,29.10
2023-05-11T01:43:28.546Z,23.67
2023-05-11T01:46:02.087Z,28.92
2023-05-11T01:48:34.774Z,28.33
2023-05-11T01:51:04.130Z,28.92
2023-05-11T01:53:35.598Z,33.72
2023-05-11T01:56:05.529Z,25.65
2023-05-11T01:58:34.196Z,34.53
2023-05-11T02:01:04.736Z,28.77
2023-05-11T02:03:35.018Z,28.67
2023-05-11T02:06:05.833Z,25.67
2023-05-11T02:08:34.421Z,27.55
2023-05-11T02:11:04.365Z,22.65
2023-05-11T02:13:33.970Z,29.33
2023-05-11T02:16:03.905Z,24.60
2023-05-11T02:18:34.016Z,23.05
2023-05-11T02:21:03.241Z,24.83
2023-05-11T02:23:32.421Z,26.90
2023-05-11T02:26:00.977Z,27.38
2023-05-11T02:28:29.019Z,27.80
2023-05-11T02:31:01.554Z,27.50
2023-05-11T02:33:34.027Z,26.15
2023-05-11T02:36:03.877Z,27.10
2023-05-11T02:38:34.670Z,26.55
2023-05-11T02:41:05.948Z,26.73
2023-05-11T02:43:36.716Z,26.30
2023-05-11T02:46:09.890Z,23.88
2023-05-11T02:48:41.575Z,26.15
2023-05-11T02:51:12.031Z,27.83
2023-05-11T02:53:42.454Z,23.77
2023-05-11T02:56:10.663Z,38.22
2023-05-11T02:58:38.872Z,32.70
2023-05-11T03:01:08.553Z,26.23
2023-05-11T03:03:36.753Z,28.73
2023-05-11T03:06:06.264Z,32.25
2023-05-11T03:08:34.410Z,26.98
2023-05-11T03:11:03.469Z,28.50
2023-05-11T03:13:32.642Z,33.00
2023-05-11T03:16:02.798Z,25.98
2023-05-11T03:18:32.251Z,28.27
2023-05-11T03:21:01.721Z,26.08
2023-05-11T03:23:31.668Z,22.50
2023-05-11T03:26:00.524Z,26.67
2023-05-11T03:28:30.791Z,27.45
2023-05-11T03:30:58.685Z,25.10
2023-05-11T03:33:26.591Z,25.25
2023-05-11T03:35:55.211Z,28.75
2023-05-11T03:38:24.706Z,28.48
2023-05-11T03:40:55.946Z,28.15
2023-05-11T03:43:24.277Z,28.77
2023-05-11T03:45:54.285Z,28.77
2023-05-11T03:48:22.556Z,30.38
2023-05-11T03:50:50.813Z,35.78
2023-05-11T03:53:19.499Z,34.88
2023-05-11T03:55:47.301Z,31.20
2023-05-11T03:58:16.915Z,29.55
2023-05-11T04:00:44.633Z,28.92
2023-05-11T04:03:12.649Z,34.15
2023-05-11T04:05:41.621Z,31.25
2023-05-11T04:08:10.813Z,37.20
2023-05-11T04:10:39.335Z,37.20
2023-05-11T04:13:07.150Z,29.45
2023-05-11T04:15:37.596Z,31.80
2023-05-11T04:18:05.494Z,32.17
2023-05-11T04:20:33.436Z,35.00
2023-05-11T04:23:01.218Z,33.70
2023-05-11T04:25:28.999Z,33.50
2023-05-11T04:27:56.714Z,35.22
2023-05-11T04:30:24.998Z,37.17
2023-05-11T04:32:54.112Z,35.17
2023-05-11T04:35:23.579Z,30.15
2023-05-11T04:37:51.627Z,36.03
2023-05-11T04:40:19.779Z,33.90
2023-05-11T04:42:47.748Z,30.88
2023-05-11T04:45:15.707Z,31.65
2023-05-11T04:47:43.478Z,35.22
2023-05-11T04:50:13.082Z,32.10
2023-05-11T04:52:40.834Z,35.75
2023-05-11T04:55:09.124Z,34.28
2023-05-11T04:57:38.797Z,37.55
2023-05-11T05:00:08.713Z,32.60
2023-05-11T05:02:36.760Z,26.38
2023-05-11T05:05:04.887Z,29.30
2023-05-11T05:07:34.116Z,31.33
2023-05-11T05:10:01.844Z,29.50
2023-05-11T05:12:29.748Z,32.03
2023-05-11T05:14:57.508Z,37.60
2023-05-11T05:17:25.364Z,33.55
2023-05-11T05:19:53.106Z,26.60
2023-05-11T05:22:21.203Z,29.65
2023-05-11T05:24:50.316Z,26.95
2023-05-11T05:27:18.266Z,29.05
2023-05-11T05:29:46.106Z,28.48
2023-05-11T05:32:13.885Z,27.60
2023-05-11T05:34:41.746Z,35.90
2023-05-11T05:37:09.626Z,26.38
2023-05-11T05:39:37.376Z,27.90
2023-05-11T05:42:07.088Z,22.85
2023-05-11T05:44:34.858Z,28.25
2023-05-11T05:47:02.751Z,23.75
2023-05-11T05:49:30.551Z,25.50
2023-05-11T05:51:58.321Z,22.95
2023-05-11T05:54:26.116Z,25.42
2023-05-11T05:56:53.865Z,24.80
2023-05-11T05:59:24.314Z,25.92
2023-05-11T06:01:52.317Z,27.42
2023-05-11T06:04:21.882Z,28.17
2023-05-11T06:06:49.888Z,28.85
2023-05-11T06:09:17.743Z,25.65
2023-05-11T06:11:45.529Z,23.30
2023-05-11T06:14:13.307Z,23.30
2023-05-11T06:16:42.758Z,28.02
2023-05-11T06:19:11.265Z,28.52
2023-05-11T06:21:41.620Z,32.92
2023-05-11T06:24:09.599Z,37.92
2023-05-11T06:26:37.480Z,31.67
2023-05-11T06:29:05.309Z,30.38
2023-05-11T06:31:33.050Z,35.65
2023-05-11T06:34:02.287Z,27.27
2023-05-11T06:36:30.150Z,30.98
2023-05-11T06:38:57.896Z,29.05
2023-05-11T06:41:26.001Z,29.75
2023-05-11T06:43:53.804Z,35.25
2023-05-11T06:46:22.350Z,34.40
2023-05-11T06:48:50.349Z,33.72
2023-05-11T06:51:21.123Z,34.70
2023-05-11T06:53:48.982Z,36.78
2023-05-11T06:56:16.867Z,35.97
2023-05-11T06:58:44.666Z,34.33
2023-05-11T07:01:13.089Z,43.45
2023-05-11T07:03:41.000Z,41.67
2023-05-11T07:06:09.440Z,41.13
2023-05-11T07:08:38.640Z,37.83
2023-05-11T07:11:06.564Z,39.92
2023-05-11T07:13:34.470Z,42.22
2023-05-11T07:16:02.730Z,42.92
2023-05-11T07:18:30.638Z,47.72
2023-05-11T07:20:58.424Z,48.20
2023-05-11T07:23:26.242Z,41.97
2023-05-11T07:25:57.499Z,40.00
2023-05-11T07:28:25.338Z,34.50
2023-05-11T07:30:53.172Z,39.78
2023-05-11T07:33:20.918Z,38.85
2023-05-11T07:35:48.750Z,38.97
2023-05-11T07:38:16.603Z,41.65
2023-05-11T07:40:44.408Z,33.65
2023-05-11T07:43:13.644Z,35.38
2023-05-11T07:45:41.519Z,45.08
2023-05-11T07:48:09.276Z,38.13
2023-05-11T07:50:37.120Z,37.15
2023-05-11T07:53:05.518Z,47.78
2023-05-11T07:55:33.380Z,39.08
2023-05-11T07:58:01.212Z,40.05
2023-05-11T08:00:30.526Z,33.70
2023-05-11T08:02:58.757Z,39.00
2023-05-11T08:05:27.106Z,44.65
2023-05-11T08:07:55.004Z,36.70
2023-05-11T08:10:22.844Z,38.03
2023-05-11T08:12:50.628Z,39.13
2023-05-11T08:15:18.569Z,38.05
2023-05-11T08:17:47.925Z,37.47
2023-05-11T08:20:15.709Z,35.33
2023-05-11T08:22:43.436Z,39.28
2023-05-11T08:25:11.723Z,34.53
2023-05-11T08:27:39.487Z,34.05
2023-05-11T08:30:11.766Z,34.47
2023-05-11T08:35:13.283Z,31.80
2023-05-11T08:37:41.153Z,30.63
2023-05-11T08:40:14.521Z,31.55
2023-05-11T08:45:14.449Z,29.42
2023-05-11T08:47:42.707Z,29.52
2023-05-11T08:50:12.222Z,35.63
2023-05-11T08:52:40.811Z,32.67
2023-05-11T08:55:09.737Z,33.63
2023-05-11T08:57:37.795Z,31.55
2023-05-11T09:00:07.325Z,32.17
2023-05-11T09:02:36.282Z,32.67
2023-05-11T09:05:04.927Z,39.42
2023-05-11T09:07:37.760Z,34.42
2023-05-11T09:10:06.287Z,27.93
2023-05-11T09:12:34.111Z,38.80
2023-05-11T09:15:02.243Z,40.58
2023-05-11T09:17:30.438Z,35.47
2023-05-11T09:20:02.934Z,34.20
2023-05-11T09:22:36.681Z,40.95
2023-05-11T09:25:05.235Z,32.20
2023-05-11T09:27:33.051Z,32.50
2023-05-11T09:30:13.389Z,28.08
2023-05-11T09:32:52.154Z,26.73
2023-05-11T09:35:21.579Z,30.92
2023-05-11T09:38:06.508Z,46.53
2023-05-11T09:40:36.253Z,28.92
2023-05-11T09:43:04.977Z,28.60
2023-05-11T09:45:36.815Z,24.30
2023-05-11T09:48:05.164Z,24.85
2023-05-11T09:50:34.293Z,27.63
2023-05-11T09:53:03.606Z,36.97
2023-05-11T09:55:31.439Z,32.50
2023-05-11T09:58:00.551Z,32.60
2023-05-11T10:00:29.985Z,31.80
2023-05-11T10:03:03.123Z,28.38
2023-05-11T10:05:32.566Z,24.58
2023-05-11T10:08:01.647Z,22.98
2023-05-11T10:10:32.746Z,33.30
2023-05-11T10:13:03.800Z,25.52
2023-05-11T10:15:36.631Z,26.27
2023-05-11T10:18:04.830Z,36.03
2023-05-11T10:20:35.203Z,27.75
2023-05-11T10:23:03.347Z,26.92
2023-05-11T10:25:32.868Z,31.33
2023-05-11T10:28:00.955Z,26.15
2023-05-11T10:30:29.184Z,25.33
2023-05-11T10:32:57.589Z,25.40
2023-05-11T10:35:25.754Z,23.60
2023-05-11T10:37:54.085Z,25.73
2023-05-11T10:40:22.625Z,23.48
2023-05-11T10:43:24.696Z,20.50
2023-05-11T10:46:01.766Z,26.35
2023-05-11T10:49:00.312Z,31.30
2023-05-11T10:51:42.581Z,32.88
2023-05-11T10:54:30.677Z,39.05
2023-05-11T10:57:13.288Z,33.63
2023-05-11T11:00:31.033Z,35.78
2023-05-11T11:03:11.062Z,28.23
2023-05-11T11:05:39.454Z,21.88
2023-05-11T11:08:09.428Z,20.50
2023-05-11T11:10:39.135Z,11.80
2023-05-11T11:13:08.774Z,14.15
2023-05-11T11:16:11.788Z,14.07
2023-05-11T11:18:41.882Z,11.00
2023-05-11T11:21:13.760Z,12.95
2023-05-11T11:23:46.200Z,12.95
2023-05-11T11:26:16.336Z,12.48
2023-05-11T11:29:09.595Z,5.90
2023-05-11T11:31:37.845Z,7.60
2023-05-11T11:34:37.441Z,9.15
2023-05-11T11:37:06.166Z,7.57
2023-05-11T11:39:56.957Z,9.27
2023-05-11T11:42:39.815Z,10.65
2023-05-11T11:45:30.392Z,7.53
2023-05-11T11:48:16.561Z,6.95
2023-05-11T11:50:48.181Z,7.95
2023-05-11T11:53:48.264Z,9.80
2023-05-11T11:56:43.765Z,9.35
2023-05-11T11:59:18.318Z,15.20
2023-05-11T12:01:47.025Z,11.55
2023-05-11T12:04:36.693Z,12.63
2023-05-11T12:07:10.284Z,19.15
2023-05-11T12:09:39.980Z,21.75
2023-05-11T12:12:08.626Z,20.60
2023-05-11T12:14:36.885Z,15.32
2023-05-11T12:17:13.580Z,16.63
2023-05-11T12:19:43.313Z,9.13
2023-05-11T12:22:14.471Z,9.68
2023-05-11T12:24:42.535Z,10.23
2023-05-11T12:27:10.459Z,10.15
2023-05-11T12:29:38.638Z,8.23
2023-05-11T12:32:11.787Z,10.88
2023-05-11T12:34:39.645Z,7.20
2023-05-11T12:37:08.644Z,6.35
2023-05-11T12:39:39.552Z,3.92
2023-05-11T12:42:07.517Z,4.75
2023-05-11T12:44:35.370Z,2.88
2023-05-11T12:47:03.350Z,3.75
2023-05-11T12:49:31.238Z,4.65
2023-05-11T12:52:08.748Z,2.55
2023-05-11T12:54:39.267Z,3.17
2023-05-11T12:57:08.674Z,5.05
2023-05-11T12:59:38.477Z,3.17
2023-05-11T13:02:10.938Z,6.55
2023-05-11T13:04:41.570Z,5.00
2023-05-11T13:07:09.841Z,3.72
2023-05-11T13:09:39.480Z,3.47
2023-05-11T13:12:17.201Z,5.97
2023-05-11T13:14:47.227Z,6.28
2023-05-11T13:17:30.172Z,4.05
2023-05-11T13:19:58.568Z,6.82
2023-05-11T13:22:26.435Z,6.22
2023-05-11T13:25:04.034Z,13.10
2023-05-11T13:27:32.121Z,6.40
2023-05-11T13:29:59.839Z,6.60
2023-05-11T13:32:27.696Z,7.75
2023-05-11T13:34:55.426Z,3.92
2023-05-11T13:37:23.298Z,1.70
2023-05-11T13:39:51.041Z,1.70
2023-05-11T13:42:20.191Z,2.53
2023-05-11T13:44:47.983Z,2.67
2023-05-11T13:47:15.867Z,4.15
2023-05-11T13:49:43.727Z,4.38
2023-05-11T13:52:11.714Z,5.32
2023-05-11T13:54:39.526Z,6.80
2023-05-11T13:57:08.127Z,3.28
2023-05-11T13:59:37.294Z,3.28
2023-05-11T14:02:05.188Z,5.32
2023-05-11T14:04:33.149Z,3.88
2023-05-11T14:07:00.969Z,3.20
2023-05-11T14:09:28.798Z,4.03
2023-05-11T14:11:56.556Z,3.40
2023-05-11T14:14:24.367Z,4.70
2023-05-11T14:16:53.676Z,5.03
2023-05-11T14:19:21.449Z,5.20
2023-05-11T14:21:49.765Z,5.22
2023-05-11T14:24:17.625Z,5.47
2023-05-11T14:26:45.486Z,4.75
2023-05-11T14:29:13.300Z,4.20
2023-05-11T14:31:41.895Z,5.95
2023-05-11T14:34:11.040Z,5.25
2023-05-11T14:36:38.919Z,3.58
2023-05-11T14:39:06.768Z,6.13
2023-05-11T14:41:34.649Z,3.90
2023-05-11T14:44:02.419Z,3.88
2023-05-11T14:46:30.320Z,8.00
2023-05-11T14:48:58.197Z,5.70
2023-05-11T14:51:27.391Z,5.07
2023-05-11T14:53:55.250Z,6.10
2023-05-11T14:56:23.470Z,4.82
2023-05-11T14:58:51.292Z,5.95
2023-05-11T15:01:19.211Z,6.75
2023-05-11T15:03:47.274Z,5.93
2023-05-11T15:06:21.049Z,5.82
2023-05-11T15:08:51.459Z,5.90
2023-05-11T15:11:19.732Z,7.15
2023-05-11T15:13:48.449Z,4.38
2023-05-11T15:16:16.397Z,4.45
2023-05-11T15:18:44.443Z,5.88
2023-05-11T15:21:12.351Z,6.10
2023-05-11T15:23:40.139Z,7.68
2023-05-11T15:26:09.944Z,7.38
2023-05-11T15:28:38.034Z,7.05
2023-05-11T15:31:05.970Z,4.22
2023-05-11T15:33:34.057Z,5.78
2023-05-11T15:36:01.911Z,6.15
2023-05-11T15:38:29.836Z,5.65
2023-05-11T15:40:58.263Z,5.05
2023-05-11T15:43:27.413Z,4.90
2023-05-11T15:45:55.369Z,4.00
2023-05-11T15:48:23.158Z,3.40
2023-05-11T15:50:50.959Z,2.47
2023-05-11T15:53:19.424Z,3.20
2023-05-11T15:55:51.017Z,7.90
2023-05-11T15:58:18.933Z,3.75
2023-05-11T16:00:48.335Z,3.28
2023-05-11T16:03:16.474Z,4.43
2023-05-11T16:05:44.582Z,3.10
2023-05-11T16:08:12.367Z,6.68
2023-05-11T16:10:40.210Z,2.78
2023-05-11T16:13:09.220Z,5.50
2023-05-11T16:15:40.025Z,3.55
2023-05-11T16:18:09.184Z,5.00
2023-05-11T16:20:37.087Z,5.95
2023-05-11T16:23:05.532Z,7.07
2023-05-11T16:25:33.380Z,5.50
2023-05-11T16:28:01.561Z,7.53
2023-05-11T16:30:29.489Z,4.43
2023-05-11T16:32:57.610Z,6.45
2023-05-11T16:35:26.861Z,6.78
2023-05-11T16:37:56.572Z,6.68
2023-05-11T16:40:24.441Z,5.63
2023-05-11T16:42:52.201Z,9.00
2023-05-11T16:45:20.293Z,7.43
2023-05-11T16:47:48.523Z,6.95
2023-05-11T16:50:16.709Z,6.40
2023-05-11T16:52:45.965Z,8.57
2023-05-11T16:55:15.998Z,6.53
2023-05-11T16:57:44.671Z,8.60
2023-05-11T17:00:14.394Z,7.57
2023-05-11T17:02:42.440Z,7.45
2023-05-11T17:05:12.044Z,9.60
2023-05-11T17:07:39.867Z,8.98
2023-05-11T17:10:11.453Z,8.32
2023-05-11T17:12:39.412Z,8.95
2023-05-11T17:15:09.710Z,5.90
2023-05-11T17:17:37.935Z,5.05
2023-05-11T17:20:07.447Z,7.90
2023-05-11T17:22:36.031Z,7.57
2023-05-11T17:25:04.148Z,7.53
2023-05-11T17:27:33.499Z,6.60
2023-05-11T17:30:01.310Z,8.88
2023-05-11T17:32:29.558Z,8.40
2023-05-11T17:34:57.684Z,5.85
2023-05-11T17:37:31.732Z,6.00
2023-05-11T17:40:01.115Z,6.93
2023-05-11T17:42:29.340Z,8.50
2023-05-11T17:44:58.670Z,7.20
2023-05-11T17:47:26.792Z,5.10
2023-05-11T17:49:54.786Z,6.13
2023-05-11T17:52:24.547Z,6.15
2023-05-11T17:54:52.348Z,5.75
2023-05-11T17:57:20.397Z,7.68
2023-05-11T17:59:48.275Z,7.65
2023-05-11T18:02:18.287Z,7.28
2023-05-11T18:04:47.768Z,6.50
2023-05-11T18:07:15.514Z,8.05
2023-05-11T18:09:43.644Z,6.45
2023-05-11T18:12:11.791Z,6.07
2023-05-11T18:14:39.540Z,8.48
2023-05-11T18:17:07.319Z,7.93
2023-05-11T18:19:36.521Z,6.28
2023-05-11T18:22:04.412Z,13.30
2023-05-11T18:24:32.387Z,6.45
2023-05-11T18:27:00.517Z,7.75
2023-05-11T18:29:28.305Z,14.07
2023-05-11T18:31:56.187Z,12.00
2023-05-11T18:34:24.159Z,6.43
2023-05-11T18:36:53.311Z,8.45
2023-05-11T18:39:21.086Z,9.73
2023-05-11T18:41:48.884Z,8.00
2023-05-11T18:44:18.593Z,7.35
2023-05-11T18:46:46.416Z,7.78
2023-05-11T18:49:14.229Z,8.98
2023-05-11T18:51:41.988Z,8.93
2023-05-11T18:54:11.464Z,8.63
2023-05-11T18:56:39.394Z,5.60
2023-05-11T18:59:07.718Z,6.10
2023-05-11T19:01:47.155Z,7.90
2023-05-11T19:04:19.578Z,8.02
2023-05-11T19:06:47.565Z,6.50
2023-05-11T19:09:16.712Z,8.75
2023-05-11T19:11:44.665Z,8.77
2023-05-11T19:14:14.649Z,8.20
2023-05-11T19:16:42.742Z,11.63
2023-05-11T19:19:10.972Z,11.07
2023-05-11T19:21:39.965Z,9.93
2023-05-11T19:24:08.391Z,10.70
2023-05-11T19:26:38.498Z,13.43
2023-05-11T19:29:06.430Z,7.78
2023-05-11T19:31:34.246Z,10.50
2023-05-11T19:34:02.846Z,7.82
2023-05-11T19:36:30.851Z,11.50
2023-05-11T19:38:58.600Z,11.45
2023-05-11T19:41:26.819Z,9.55
2023-05-11T19:43:55.941Z,11.55
2023-05-11T19:46:24.385Z,10.75
2023-05-11T19:48:52.161Z,10.55
2023-05-11T19:51:19.977Z,12.20
2023-05-11T19:53:47.920Z,14.55
2023-05-11T19:56:15.642Z,10.75
2023-05-11T19:58:43.455Z,12.40
2023-05-11T20:01:12.657Z,11.07
2023-05-11T20:03:40.890Z,10.05
2023-05-11T20:06:08.761Z,15.60
2023-05-11T20:08:36.590Z,9.27
2023-05-11T20:11:05.111Z,12.43
2023-05-11T20:13:32.867Z,11.00
2023-05-11T20:16:00.685Z,10.52
2023-05-11T20:18:30.222Z,11.63
2023-05-11T20:20:58.056Z,8.95
2023-05-11T20:23:27.274Z,11.68
2023-05-11T20:25:55.168Z,13.25
2023-05-11T20:28:26.984Z,10.38
2023-05-11T20:30:55.945Z,13.50
2023-05-11T20:35:55.841Z,9.27
2023-05-11T20:38:23.657Z,7.15
2023-05-11T20:40:51.708Z,5.13
2023-05-11T20:43:19.794Z,4.15
2023-05-11T20:45:47.585Z,3.75
2023-05-11T20:48:16.146Z,4.00
2023-05-11T20:50:50.535Z,3.50
2023-05-11T20:53:20.508Z,4.53
2023-05-11T20:55:49.163Z,5.15
2023-05-11T20:58:16.933Z,6.00
2023-05-11T21:00:44.761Z,5.15
2023-05-11T21:03:12.701Z,5.00
2023-05-11T21:05:40.684Z,3.67
2023-05-11T21:08:08.478Z,3.97
2023-05-11T21:10:37.703Z,4.88
2023-05-11T21:13:05.577Z,3.50
2023-05-11T21:15:33.465Z,4.40
2023-05-11T21:18:02.022Z,5.05
2023-05-11T21:20:29.963Z,4.32
2023-05-11T21:22:58.177Z,3.58
2023-05-11T21:25:26.247Z,6.35
2023-05-11T21:27:55.410Z,4.07
2023-05-11T21:30:23.257Z,5.72
2023-05-11T21:32:51.558Z,3.38
2023-05-11T21:35:19.684Z,4.45
2023-05-11T21:37:49.704Z,6.75
2023-05-11T21:40:18.520Z,6.10
2023-05-11T21:42:46.494Z,4.10
2023-05-11T21:45:15.759Z,4.90
2023-05-11T21:47:43.610Z,4.30
2023-05-11T21:50:12.753Z,4.32
2023-05-11T21:52:40.718Z,5.18
2023-05-11T21:55:09.205Z,4.53
2023-05-11T21:57:37.173Z,5.47
2023-05-11T22:00:05.897Z,7.88
2023-05-11T22:02:35.202Z,6.35
2023-05-11T22:05:03.120Z,5.15
2023-05-11T22:07:30.906Z,9.52
2023-05-11T22:09:58.761Z,6.10
2023-05-11T22:12:26.961Z,5.35
2023-05-11T22:14:55.249Z,4.40
2023-05-11T22:17:23.103Z,6.03
2023-05-11T22:19:52.293Z,6.65
2023-05-11T22:22:20.139Z,5.32
2023-05-11T22:24:47.957Z,6.20
2023-05-11T22:27:16.613Z,5.55
2023-05-11T22:29:44.670Z,5.25
2023-05-11T22:32:13.040Z,6.93
2023-05-11T22:34:40.864Z,6.25
2023-05-11T22:37:10.025Z,4.13
2023-05-11T22:39:37.817Z,7.60
2023-05-11T22:42:05.929Z,8.07
2023-05-11T22:44:33.683Z,8.30
2023-05-11T22:47:02.429Z,14.73
2023-05-11T22:49:30.278Z,9.40
2023-05-11T22:51:59.676Z,12.15
2023-05-11T22:54:28.913Z,11.65
2023-05-11T22:56:57.378Z,13.00
2023-05-11T22:59:25.186Z,10.68
2023-05-11T23:01:55.310Z,10.25
2023-05-11T23:04:23.084Z,11.43
2023-05-11T23:06:50.831Z,9.57
2023-05-11T23:09:18.683Z,11.43
2023-05-11T23:11:48.746Z,8.60
2023-05-11T23:14:16.523Z,10.23
2023-05-11T23:16:44.566Z,10.18
2023-05-11T23:19:12.426Z,8.55
2023-05-11T23:21:40.662Z,7.63
2023-05-11T23:24:08.639Z,6.07
2023-05-11T23:26:37.235Z,6.05
2023-05-11T23:29:06.507Z,14.82
2023-05-11T23:31:34.474Z,8.10
2023-05-11T23:34:02.298Z,9.05
2023-05-11T23:36:30.139Z,10.05
2023-05-11T23:38:57.919Z,12.23
2023-05-11T23:41:25.665Z,12.93
2023-05-11T23:43:53.452Z,13.32
2023-05-11T23:46:22.574Z,10.85
2023-05-11T23:48:50.433Z,12.15
2023-05-11T23:51:18.185Z,8.52
2023-05-11T23:53:46.925Z,8.48
2023-05-11T23:56:14.704Z,12.13
2023-05-11T23:58:45.743Z,7.05
